Time;durP1;ratioP1;P1;durP2;ratioP2;P2;SDS_P1;SDS_P2;PMS_P1;PMS_P2;Temp;Humidity;BMP_temperature;BMP_pressure;BME280_temperature;BME280_humidity;BME280_pressure;Samples;Min_cycle;Max_cycle;Signal;HPM_P1;HPM_P2
2023/06/26 00:03:58;;;;;;;;;;;;;;;;;;5092089;27;19942;-65
2023/06/26 00:08:36;;;;;;;;;;;;;;;;;;5091110;27;19919;-65
2023/06/26 00:11:54;;;;;;;;;;;;;;;;;;5111801;27;20394;-65
2023/06/26 00:17:20;;;;;;;;;;;;;;;;;;5091671;27;20410;-64
2023/06/26 00:21:33;;;;;;;;;;;;;;;;;;5111976;27;19922;-65
2023/06/26 00:25:58;;;;;;;;;;;;;;;;;;5112209;27;19938;-64
2023/06/26 00:30:21;;;;;;;;;;;;;;;;;;5112653;27;19922;-64
2023/06/26 00:32:47;;;;;;;;;;;;;;;;;;5111784;28;20006;-67
2023/06/26 00:39:06;;;;;;;;;;;;;;;;;;5111784;27;19912;-65
2023/06/26 00:41:32;;;;;;;;;;;;;;;;;;5111721;28;20030;-65
2023/06/26 00:47:17;;;;;;;;;;;;;;;;;;5112075;27;19916;-65
2023/06/26 00:53:15;;;;;;;;;;;;;;;;;;5091730;28;19923;-65
2023/06/26 00:55:41;;;;;;;;;;;;;;;;;;5091351;28;20262;-65
2023/06/26 01:00:45;;;;;;;;;;;;;;;;;;5091586;27;19916;-65
2023/06/26 01:05:40;;;;;;;;;;;;;;;;;;5153139;27;19915;-65
2023/06/26 01:08:06;;;;;;;;;;;;;;;;;;5152937;27;20006;-65
2023/06/26 01:11:13;;;;;;;;;;;;;;;;;;5111744;27;19923;-64
2023/06/26 01:18:05;;;;;;;;;;;;;;;;;;5111472;27;19938;-64
2023/06/26 01:21:43;;;;;;;;;;;;;;;;;;5092276;27;19917;-66
2023/06/26 01:24:09;;;;;;;;;;;;;;;;;;5089949;28;20008;-66
2023/06/26 01:29:26;;;;;;;;;;;;;;;;;;5112054;27;19916;-64
2023/06/26 01:32:22;;;;;;;;;;;;;;;;;;5091290;27;19917;-65
2023/06/26 01:40:11;;;;;;;;;;;;;;;;;;5111544;27;19916;-66
2023/06/26 01:44:00;;;;;;;;;;;;;;;;;;5112203;27;19916;-66
2023/06/26 01:48:09;;;;;;;;;;;;;;;;;;5091519;27;19923;-65
2023/06/26 01:50:36;;;;;;;;;;;;;;;;;;5091392;28;19999;-65
2023/06/26 01:59:43;;;;;;;;;;;;;;;;;;5091237;27;19923;-65
2023/06/26 02:02:09;;;;;;;;;;;;;;;;;;5091379;28;19999;-65
2023/06/26 02:04:35;;;;;;;;;;;;;;;;;;5091335;28;19908;-65
2023/06/26 02:07:01;;;;;;;;;;;;;;;;;;5090934;28;19915;-66
2023/06/26 02:16:11;;;;;;;;;;;;;;;;;;5112613;27;19916;-65
2023/06/26 02:18:37;;;;;;;;;;;;;;;;;;5111769;28;20035;-65
2023/06/26 02:21:03;;;;;;;;;;;;;;;;;;5111211;28;19912;-65
2023/06/26 02:25:55;;;;;;;;;;;;;;;;;;5091950;28;19916;-65
2023/06/26 02:29:42;;;;;;;;;;;;;;;;;;5091463;28;19912;-65
2023/06/26 02:34:36;;;;;;;;;;;;;;;;;;5112087;27;19916;-65
2023/06/26 02:43:22;;;;;;;;;;;;;;;;;;5070907;28;19935;-64
2023/06/26 02:45:48;;;;;;;;;;;;;;;;;;5071207;28;20428;-64
2023/06/26 02:54:55;;;;;;;;;;;;;;;;;;5092202;28;19923;-65
2023/06/26 02:57:21;;;;;;;;;;;;;;;;;;5090975;28;20003;-65
2023/06/26 03:01:29;;;;;;;;;;;;;;;;;;5092109;27;19938;-65
2023/06/26 03:06:21;;;;;;;;;;;;;;;;;;5091526;28;19916;-64
2023/06/26 03:12:12;;;;;;;;;;;;;;;;;;5111845;27;19915;-67
2023/06/26 03:17:26;;;;;;;;;;;;;;;;;;5091471;27;19917;-65
2023/06/26 03:19:52;;;;;;;;;;;;;;;;;;5091589;28;20435;-65
2023/06/26 03:22:18;;;;;;;;;;;;;;;;;;5090239;28;19908;-65
2023/06/26 03:25:09;;;;;;;;;;;;;;;;;;5111821;27;19916;-65
2023/06/26 03:33:39;;;;;;;;;;;;;;;;;;5091844;27;19935;-65
2023/06/26 03:36:06;;;;;;;;;;;;;;;;;;5091397;28;20432;-65
2023/06/26 03:38:31;;;;;;;;;;;;;;;;;;5090910;28;19940;-65
2023/06/26 03:41:35;;;;;;;;;;;;;;;;;;5091720;28;19917;-65
2023/06/26 03:50:40;;;;;;;;;;;;;;;;;;5091752;27;19912;-65
2023/06/26 03:54:41;;;;;;;;;;;;;;;;;;5174372;27;19911;-65
2023/06/26 03:57:07;;;;;;;;;;;;;;;;;;5155092;27;19919;-65
2023/06/26 04:02:40;;;;;;;;;;;;;;;;;;5112141;27;19912;-65
2023/06/26 04:05:06;;;;;;;;;;;;;;;;;;5111723;28;20019;-65
2023/06/26 04:10:20;;;;;;;;;;;;;;;;;;5112337;27;20298;-65
2023/06/26 04:19:25;;;;;;;;;;;;;;;;;;5092002;27;19923;-64
2023/06/26 04:24:08;;;;;;;;;;;;;;;;;;5031523;28;20296;-65
2023/06/26 04:26:35;;;;;;;;;;;;;;;;;;5030099;28;19920;-65
2023/06/26 04:29:01;;;;;;;;;;;;;;;;;;5030839;28;19909;-65
2023/06/26 04:31:27;;;;;;;;;;;;;;;;;;5031806;28;19910;-65
2023/06/26 04:33:54;;;;;;;;;;;;;;;;;;5031233;28;19915;-65
2023/06/26 04:42:41;;;;;;;;;;;;;;;;;;5090970;28;19919;-66
2023/06/26 04:45:07;;;;;;;;;;;;;;;;;;5091338;28;20015;-66
2023/06/26 04:47:33;;;;;;;;;;;;;;;;;;5090045;28;19912;-66
2023/06/26 04:49:59;;;;;;;;;;;;;;;;;;5091057;28;19912;-66
2023/06/26 04:52:24;;;;;;;;;;;;;;;;;;5091249;28;19991;-66
2023/06/26 04:58:43;;;;;;;;;;;;;;;;;;5111982;27;19923;-65
2023/06/26 05:02:12;;;;;;;;;;;;;;;;;;5112035;27;19915;-65
2023/06/26 05:05:37;;;;;;;;;;;;;;;;;;5112255;27;19963;-65
2023/06/26 05:09:50;;;;;;;;;;;;;;;;;;5111346;27;19916;-65
2023/06/26 05:12:16;;;;;;;;;;;;;;;;;;5110444;28;20006;-66
2023/06/26 05:14:53;;;;;;;;;;;;;;;;;;5112171;27;19922;-66
2023/06/26 05:17:41;;;;;;;;;;;;;;;;;;5111734;27;19916;-66
2023/06/26 05:20:09;;;;;;;;;;;;;;;;;;5111703;28;19999;-66
2023/06/26 05:26:19;;;;;;;;;;;;;;;;;;5112332;27;19922;-65
2023/06/26 05:29:52;;;;;;;;;;;;;;;;;;5141496;27;19920;-63
2023/06/26 05:32:18;;;;;;;;;;;;;;;;;;5135544;27;20762;-63
2023/06/26 05:36:15;;;;;;;;;;;;;;;;;;5139654;27;19930;-61
2023/06/26 05:38:41;;;;;;;;;;;;;;;;;;5096363;28;19912;-61
2023/06/26 05:41:07;;;;;;;;;;;;;;;;;;5093353;28;19913;-60
2023/06/26 05:45:27;;;;;;;;;;;;;;;;;;5111620;27;19916;-62
2023/06/26 05:47:53;;;;;;;;;;;;;;;;;;5111348;28;19918;-61
2023/06/26 05:50:19;;;;;;;;;;;;;;;;;;5109738;28;19916;-62
2023/06/26 05:52:45;;;;;;;;;;;;;;;;;;5111077;28;19914;-62
2023/06/26 05:55:11;;;;;;;;;;;;;;;;;;5111355;28;19908;-62
2023/06/26 05:59:06;;;;;;;;;;;;;;;;;;5110731;27;19930;-60
2023/06/26 06:04:51;;;;;;;;;;;;;;;;;;5091033;28;20003;-60
2023/06/26 06:07:17;;;;;;;;;;;;;;;;;;5090820;28;19920;-61
2023/06/26 06:09:43;;;;;;;;;;;;;;;;;;5063341;28;19909;-61
2023/06/26 06:12:09;;;;;;;;;;;;;;;;;;5079286;28;19916;-61
2023/06/26 06:14:35;;;;;;;;;;;;;;;;;;5089266;28;19977;-61
2023/06/26 06:17:01;;;;;;;;;;;;;;;;;;5090804;28;20307;-62
2023/06/26 06:19:27;;;;;;;;;;;;;;;;;;5091000;28;19998;-62
2023/06/26 06:21:53;;;;;;;;;;;;;;;;;;5090467;28;19908;-61
2023/06/26 06:24:19;;;;;;;;;;;;;;;;;;5090233;28;19927;-64
2023/06/26 06:28:26;;;;;;;;;;;;;;;;;;5110503;27;19916;-60
2023/06/26 06:33:23;;;;;;;;;;;;;;;;;;5090771;27;19916;-61
2023/06/26 06:35:49;;;;;;;;;;;;;;;;;;5090658;28;20007;-61
2023/06/26 06:42:42;;;;;;;;;;;;;;;;;;5117515;27;19926;-62
2023/06/26 06:45:08;;;;;;;;;;;;;;;;;;5122500;28;19912;-61
2023/06/26 06:47:34;;;;;;;;;;;;;;;;;;5121120;27;19912;-62
2023/06/26 06:51:03;;;;;;;;;;;;;;;;;;5089638;27;19923;-62
2023/06/26 06:53:29;;;;;;;;;;;;;;;;;;5087664;28;19912;-62
2023/06/26 06:56:11;;;;;;;;;;;;;;;;;;5109539;27;19920;-61
2023/06/26 06:58:37;;;;;;;;;;;;;;;;;;5111260;28;19912;-66
2023/06/26 07:01:13;;;;;;;;;;;;;;;;;;5090011;27;19927;-62
2023/06/26 07:03:39;;;;;;;;;;;;;;;;;;5078878;28;20284;-64
2023/06/26 07:06:49;;;;;;;;;;;;;;;;;;5088249;28;20398;-62
2023/06/26 07:09:15;;;;;;;;;;;;;;;;;;5087253;28;19916;-62
2023/06/26 07:11:41;;;;;;;;;;;;;;;;;;5088383;28;19913;-63
2023/06/26 07:14:07;;;;;;;;;;;;;;;;;;5085476;28;19919;-61
2023/06/26 07:16:33;;;;;;;;;;;;;;;;;;5083274;28;19919;-64
2023/06/26 07:18:59;;;;;;;;;;;;;;;;;;5082185;28;20011;-63
2023/06/26 07:21:25;;;;;;;;;;;;;;;;;;5078388;28;19913;-63
2023/06/26 07:23:51;;;;;;;;;;;;;;;;;;5081799;28;19912;-63
2023/06/26 07:31:45;;;;;;;;;;;;;;;;;;5100966;27;19926;-63
2023/06/26 07:34:11;;;;;;;;;;;;;;;;;;5109524;28;20052;-62
2023/06/26 07:36:37;;;;;;;;;;;;;;;;;;5108180;28;20375;-61
2023/06/26 07:39:03;;;;;;;;;;;;;;;;;;5111608;28;19916;-63
2023/06/26 07:41:31;;;;;;;;;;;;;;;;;;5112526;27;20006;-62
2023/06/26 07:43:57;;;;;;;;;;;;;;;;;;5113466;28;19973;-63
2023/06/26 07:46:23;;;;;;;;;;;;;;;;;;5120668;28;19916;-64
2023/06/26 07:50:07;;;;;;;;;;;;;;;;;;5077841;27;19925;-63
2023/06/26 07:54:47;;;;;;;;;;;;;;;;;;5089409;27;19920;-62
2023/06/26 07:57:13;;;;;;;;;;;;;;;;;;5085531;28;19923;-61
2023/06/26 07:59:39;;;;;;;;;;;;;;;;;;5088721;28;20331;-61
2023/06/26 08:02:05;;;;;;;;;;;;;;;;;;5093083;28;20311;-63
2023/06/26 08:04:34;;;;;;;;;;;;;;;;;;5087857;28;19912;-61
2023/06/26 08:07:00;;;;;;;;;;;;;;;;;;5092564;28;20380;-62
2023/06/26 08:10:49;;;;;;;;;;;;;;;;;;5067733;28;19927;-61
2023/06/26 08:13:15;;;;;;;;;;;;;;;;;;5067442;28;19912;-65
2023/06/26 08:15:41;;;;;;;;;;;;;;;;;;5068549;28;19995;-64
2023/06/26 08:18:07;;;;;;;;;;;;;;;;;;5068856;28;19935;-65
2023/06/26 08:20:35;;;;;;;;;;;;;;;;;;5069717;28;19916;-64
2023/06/26 08:23:01;;;;;;;;;;;;;;;;;;5070173;28;20463;-65
2023/06/26 08:25:27;;;;;;;;;;;;;;;;;;5068973;28;19913;-67
2023/06/26 08:30:06;;;;;;;;;;;;;;;;;;5131507;27;19969;-65
2023/06/26 08:32:32;;;;;;;;;;;;;;;;;;5131833;28;19912;-64
2023/06/26 08:34:58;;;;;;;;;;;;;;;;;;5131115;28;20011;-64
2023/06/26 08:37:24;;;;;;;;;;;;;;;;;;5128580;28;19919;-65
2023/06/26 08:39:50;;;;;;;;;;;;;;;;;;5111201;28;19925;-65
2023/06/26 08:42:16;;;;;;;;;;;;;;;;;;5101037;28;19918;-65
2023/06/26 08:44:42;;;;;;;;;;;;;;;;;;5112598;28;19940;-64
2023/06/26 08:47:08;;;;;;;;;;;;;;;;;;5116712;28;20006;-65
2023/06/26 08:49:34;;;;;;;;;;;;;;;;;;5110093;28;19916;-65
2023/06/26 08:52:00;;;;;;;;;;;;;;;;;;5110216;28;19915;-65
2023/06/26 08:54:28;;;;;;;;;;;;;;;;;;5112997;28;19907;-66
2023/06/26 08:56:54;;;;;;;;;;;;;;;;;;5128975;28;19915;-64
2023/06/26 08:59:20;;;;;;;;;;;;;;;;;;5119243;28;19912;-66
2023/06/26 09:01:46;;;;;;;;;;;;;;;;;;5124782;28;19976;-66
2023/06/26 09:04:12;;;;;;;;;;;;;;;;;;5120609;28;19919;-67
2023/06/26 09:06:39;;;;;;;;;;;;;;;;;;5119890;28;20294;-66
2023/06/26 09:09:05;;;;;;;;;;;;;;;;;;5129718;28;20271;-65
2023/06/26 09:11:31;;;;;;;;;;;;;;;;;;5119950;28;19914;-64
2023/06/26 09:13:57;;;;;;;;;;;;;;;;;;5109539;28;19918;-66
2023/06/26 09:16:23;;;;;;;;;;;;;;;;;;5127079;28;20351;-65
2023/06/26 09:18:49;;;;;;;;;;;;;;;;;;5098559;28;19915;-66
2023/06/26 09:21:15;;;;;;;;;;;;;;;;;;5117409;28;19981;-66
2023/06/26 09:23:41;;;;;;;;;;;;;;;;;;5122556;28;19912;-65
2023/06/26 09:26:07;;;;;;;;;;;;;;;;;;5109298;28;19908;-67
2023/06/26 09:28:33;;;;;;;;;;;;;;;;;;5125257;28;19927;-65
2023/06/26 09:30:59;;;;;;;;;;;;;;;;;;5114359;27;20002;-66
2023/06/26 09:33:25;;;;;;;;;;;;;;;;;;5122060;27;19927;-66
2023/06/26 09:35:51;;;;;;;;;;;;;;;;;;5115218;27;19912;-66
2023/06/26 09:38:18;;;;;;;;;;;;;;;;;;5114279;28;19916;-65
2023/06/26 09:40:44;;;;;;;;;;;;;;;;;;5095101;28;20449;-65
2023/06/26 09:43:10;;;;;;;;;;;;;;;;;;5088374;28;20365;-65
2023/06/26 09:45:39;;;;;;;;;;;;;;;;;;5095379;28;19955;-65
2023/06/26 09:48:05;;;;;;;;;;;;;;;;;;5097314;28;20023;-65
2023/06/26 09:50:32;;;;;;;;;;;;;;;;;;5102454;28;19951;-66
2023/06/26 09:52:58;;;;;;;;;;;;;;;;;;5094710;28;19912;-66
2023/06/26 09:55:24;;;;;;;;;;;;;;;;;;5092915;28;19908;-65
2023/06/26 09:57:50;;;;;;;;;;;;;;;;;;5092467;28;20007;-65
2023/06/26 10:00:16;;;;;;;;;;;;;;;;;;5092042;28;19923;-66
2023/06/26 10:02:42;;;;;;;;;;;;;;;;;;5092727;28;19912;-66
2023/06/26 10:05:08;;;;;;;;;;;;;;;;;;5100150;28;19947;-66
2023/06/26 10:07:34;;;;;;;;;;;;;;;;;;5092444;28;19946;-65
2023/06/26 10:10:00;;;;;;;;;;;;;;;;;;5093945;28;19921;-65
2023/06/26 10:12:26;;;;;;;;;;;;;;;;;;5094495;28;19916;-65
2023/06/26 10:14:52;;;;;;;;;;;;;;;;;;5104234;28;19970;-64
2023/06/26 10:17:18;;;;;;;;;;;;;;;;;;5111730;28;20008;-66
2023/06/26 10:19:44;;;;;;;;;;;;;;;;;;5104707;28;19912;-65
2023/06/26 10:22:10;;;;;;;;;;;;;;;;;;5109232;28;19912;-63
2023/06/26 10:24:36;;;;;;;;;;;;;;;;;;5084403;28;19985;-66
2023/06/26 10:27:02;;;;;;;;;;;;;;;;;;5109748;28;19934;-65
2023/06/26 10:29:28;;;;;;;;;;;;;;;;;;5106186;28;20379;-66
2023/06/26 10:31:54;;;;;;;;;;;;;;;;;;5097358;28;20367;-65
2023/06/26 10:34:20;;;;;;;;;;;;;;;;;;5113598;28;19934;-65
2023/06/26 10:36:47;;;;;;;;;;;;;;;;;;5087478;28;19954;-65
2023/06/26 10:39:13;;;;;;;;;;;;;;;;;;5093463;28;19912;-66
2023/06/26 10:41:45;;;;;;;;;;;;;;;;;;5097317;28;19918;-67
2023/06/26 10:44:11;;;;;;;;;;;;;;;;;;5093703;28;19951;-66
2023/06/26 10:46:37;;;;;;;;;;;;;;;;;;5109390;28;19919;-66
2023/06/26 10:49:04;;;;;;;;;;;;;;;;;;5086546;28;19924;-65
2023/06/26 10:51:30;;;;;;;;;;;;;;;;;;5097066;28;19973;-64
2023/06/26 10:53:56;;;;;;;;;;;;;;;;;;5088892;28;19942;-64
2023/06/26 10:56:22;;;;;;;;;;;;;;;;;;5100210;28;19908;-64
2023/06/26 10:58:48;;;;;;;;;;;;;;;;;;5112396;28;19964;-64
2023/06/26 11:01:14;;;;;;;;;;;;;;;;;;5100736;28;19912;-64
2023/06/26 11:03:40;;;;;;;;;;;;;;;;;;5102961;28;19915;-64
2023/06/26 11:06:06;;;;;;;;;;;;;;;;;;5091191;28;19931;-63
2023/06/26 11:08:32;;;;;;;;;;;;;;;;;;5095712;28;20376;-65
2023/06/26 11:10:57;;;;;;;;;;;;;;;;;;5092416;28;19908;-64
2023/06/26 11:13:24;;;;;;;;;;;;;;;;;;5092935;28;19908;-63
2023/06/26 11:15:50;;;;;;;;;;;;;;;;;;5093395;28;19946;-65
2023/06/26 11:18:16;;;;;;;;;;;;;;;;;;5074861;28;20000;-64
2023/06/26 11:20:42;;;;;;;;;;;;;;;;;;5092114;28;19919;-63
2023/06/26 11:23:08;;;;;;;;;;;;;;;;;;5092163;28;19919;-63
2023/06/26 11:25:35;;;;;;;;;;;;;;;;;;5095380;28;19920;-64
2023/06/26 11:28:01;;;;;;;;;;;;;;;;;;5108306;28;19927;-63
2023/06/26 11:30:27;;;;;;;;;;;;;;;;;;5093989;28;19920;-64
2023/06/26 11:32:54;;;;;;;;;;;;;;;;;;5109259;27;20006;-64
2023/06/26 11:35:20;;;;;;;;;;;;;;;;;;5095195;28;19919;-65
2023/06/26 11:37:46;;;;;;;;;;;;;;;;;;5096109;28;19912;-64
2023/06/26 11:40:12;;;;;;;;;;;;;;;;;;5091141;28;19955;-64
2023/06/26 11:42:38;;;;;;;;;;;;;;;;;;5106142;28;19915;-64
2023/06/26 11:45:03;;;;;;;;;;;;;;;;;;5109392;28;19964;-63
2023/06/26 11:47:29;;;;;;;;;;;;;;;;;;5109369;28;19998;-63
2023/06/26 11:49:55;;;;;;;;;;;;;;;;;;5109132;28;19923;-63
2023/06/26 11:52:21;;;;;;;;;;;;;;;;;;5109086;28;19908;-64
2023/06/26 11:54:47;;;;;;;;;;;;;;;;;;5099924;27;19933;-64
2023/06/26 11:57:13;;;;;;;;;;;;;;;;;;5110916;28;20019;-64
2023/06/26 11:59:39;;;;;;;;;;;;;;;;;;5113526;28;20421;-64
2023/06/26 12:02:06;;;;;;;;;;;;;;;;;;5112311;28;19908;-63
2023/06/26 12:04:35;;;;;;;;;;;;;;;;;;5112305;28;19938;-65
2023/06/26 12:07:03;;;;;;;;;;;;;;;;;;5107314;28;20372;-64
2023/06/26 12:09:30;;;;;;;;;;;;;;;;;;5093277;28;19955;-63
2023/06/26 12:11:55;;;;;;;;;;;;;;;;;;5083648;28;20261;-63
2023/06/26 12:14:21;;;;;;;;;;;;;;;;;;5113804;28;19915;-64
2023/06/26 12:16:47;;;;;;;;;;;;;;;;;;5114129;28;19999;-64
2023/06/26 12:19:14;;;;;;;;;;;;;;;;;;5093677;28;19908;-64
2023/06/26 12:21:40;;;;;;;;;;;;;;;;;;5111930;28;19908;-63
2023/06/26 12:24:06;;;;;;;;;;;;;;;;;;5104449;28;20241;-62
2023/06/26 12:26:33;;;;;;;;;;;;;;;;;;5111530;28;20321;-63
2023/06/26 12:28:59;;;;;;;;;;;;;;;;;;5111724;28;20014;-64
2023/06/26 12:31:25;;;;;;;;;;;;;;;;;;5096892;28;20007;-63
2023/06/26 12:33:53;;;;;;;;;;;;;;;;;;5092265;28;19908;-62
2023/06/26 12:36:18;;;;;;;;;;;;;;;;;;5104166;28;19955;-63
2023/06/26 12:38:44;;;;;;;;;;;;;;;;;;5104258;28;19959;-62
2023/06/26 12:41:10;;;;;;;;;;;;;;;;;;5096842;28;19912;-66
2023/06/26 12:43:36;;;;;;;;;;;;;;;;;;5109037;28;20368;-63
2023/06/26 12:46:02;;;;;;;;;;;;;;;;;;5113204;28;19953;-63
2023/06/26 12:48:28;;;;;;;;;;;;;;;;;;5112269;28;20296;-63
2023/06/26 12:50:55;;;;;;;;;;;;;;;;;;5114103;28;20400;-64
2023/06/26 12:53:21;;;;;;;;;;;;;;;;;;5114057;28;20360;-64
2023/06/26 12:55:47;;;;;;;;;;;;;;;;;;5113675;28;19907;-64
2023/06/26 12:58:13;;;;;;;;;;;;;;;;;;5114016;28;19915;-64
2023/06/26 13:00:40;;;;;;;;;;;;;;;;;;5113457;28;19947;-64
2023/06/26 13:03:06;;;;;;;;;;;;;;;;;;5113805;28;19908;-64
2023/06/26 13:05:32;;;;;;;;;;;;;;;;;;5113822;28;19969;-64
2023/06/26 13:07:59;;;;;;;;;;;;;;;;;;5113358;28;19908;-64
2023/06/26 13:10:28;;;;;;;;;;;;;;;;;;5113797;28;20298;-64
2023/06/26 13:12:54;;;;;;;;;;;;;;;;;;5113764;28;20123;-64
2023/06/26 13:15:20;;;;;;;;;;;;;;;;;;5114778;28;20002;-64
2023/06/26 13:17:46;;;;;;;;;;;;;;;;;;5117643;28;19908;-65
2023/06/26 13:20:13;;;;;;;;;;;;;;;;;;5117637;28;19908;-64
2023/06/26 13:22:39;;;;;;;;;;;;;;;;;;5117299;28;20272;-65
2023/06/26 13:25:05;;;;;;;;;;;;;;;;;;5117662;28;19933;-64
2023/06/26 13:27:31;;;;;;;;;;;;;;;;;;5117743;28;19908;-64
2023/06/26 13:29:57;;;;;;;;;;;;;;;;;;5116921;28;20387;-65
2023/06/26 13:32:24;;;;;;;;;;;;;;;;;;5117506;28;19951;-64
2023/06/26 13:34:50;;;;;;;;;;;;;;;;;;5117359;28;20003;-65
2023/06/26 13:37:16;;;;;;;;;;;;;;;;;;5116949;28;19947;-65
2023/06/26 13:39:42;;;;;;;;;;;;;;;;;;5117167;28;19953;-65
2023/06/26 13:42:08;;;;;;;;;;;;;;;;;;5117140;28;20429;-65
2023/06/26 13:44:34;;;;;;;;;;;;;;;;;;5116785;28;19912;-65
2023/06/26 13:47:00;;;;;;;;;;;;;;;;;;5117115;28;19912;-65
2023/06/26 13:49:26;;;;;;;;;;;;;;;;;;5117158;28;19916;-65
2023/06/26 13:51:52;;;;;;;;;;;;;;;;;;5116733;28;19919;-65
2023/06/26 13:54:18;;;;;;;;;;;;;;;;;;5117171;28;19908;-65
2023/06/26 13:56:44;;;;;;;;;;;;;;;;;;5116721;28;19987;-65
2023/06/26 13:59:11;;;;;;;;;;;;;;;;;;5116971;28;19908;-65
2023/06/26 14:01:38;;;;;;;;;;;;;;;;;;5116803;28;19908;-66
2023/06/26 14:04:04;;;;;;;;;;;;;;;;;;5098126;28;19919;-65
2023/06/26 14:06:32;;;;;;;;;;;;;;;;;;5116727;28;19912;-65
2023/06/26 14:08:59;;;;;;;;;;;;;;;;;;5116585;28;19916;-65
2023/06/26 14:11:25;;;;;;;;;;;;;;;;;;5116252;28;20084;-65
2023/06/26 14:13:51;;;;;;;;;;;;;;;;;;5116520;28;20017;-65
2023/06/26 14:16:18;;;;;;;;;;;;;;;;;;5116524;28;19915;-65
2023/06/26 14:18:44;;;;;;;;;;;;;;;;;;5116249;28;19907;-64
2023/06/26 14:21:10;;;;;;;;;;;;;;;;;;5098143;28;20364;-64
2023/06/26 14:23:36;;;;;;;;;;;;;;;;;;5116448;28;19908;-64
2023/06/26 14:26:02;;;;;;;;;;;;;;;;;;5115857;28;20225;-64
2023/06/26 14:28:28;;;;;;;;;;;;;;;;;;5115886;28;19916;-67
2023/06/26 14:30:54;;;;;;;;;;;;;;;;;;5116266;28;19912;-64
2023/06/26 14:33:20;;;;;;;;;;;;;;;;;;5115694;28;19908;-65
2023/06/26 14:35:46;;;;;;;;;;;;;;;;;;5116167;28;19915;-64
2023/06/26 14:38:12;;;;;;;;;;;;;;;;;;5116080;28;19915;-65
2023/06/26 14:40:38;;;;;;;;;;;;;;;;;;5115720;28;19908;-64
2023/06/26 14:43:04;;;;;;;;;;;;;;;;;;5116081;28;20379;-64
2023/06/26 14:45:30;;;;;;;;;;;;;;;;;;5115954;28;19908;-65
2023/06/26 14:47:56;;;;;;;;;;;;;;;;;;5115482;28;19947;-64
2023/06/26 14:50:22;;;;;;;;;;;;;;;;;;5115875;28;19980;-65
2023/06/26 14:52:48;;;;;;;;;;;;;;;;;;5115740;28;20371;-64
2023/06/26 14:55:14;;;;;;;;;;;;;;;;;;5115608;28;19908;-65
2023/06/26 14:57:40;;;;;;;;;;;;;;;;;;5115754;28;20275;-65
2023/06/26 15:00:06;;;;;;;;;;;;;;;;;;5115319;28;19987;-65
2023/06/26 15:02:32;;;;;;;;;;;;;;;;;;5115644;28;19958;-65
2023/06/26 15:04:58;;;;;;;;;;;;;;;;;;5115451;28;19950;-65
2023/06/26 15:07:24;;;;;;;;;;;;;;;;;;5115060;28;20027;-64
2023/06/26 15:09:50;;;;;;;;;;;;;;;;;;5115368;28;19923;-65
2023/06/26 15:12:16;;;;;;;;;;;;;;;;;;5115289;28;19939;-64
2023/06/26 15:14:42;;;;;;;;;;;;;;;;;;5115003;28;19908;-65
2023/06/26 15:17:08;;;;;;;;;;;;;;;;;;5115290;28;20283;-64
2023/06/26 15:19:34;;;;;;;;;;;;;;;;;;5115274;28;20283;-64
2023/06/26 15:22:00;;;;;;;;;;;;;;;;;;5114831;28;20346;-64
2023/06/26 15:24:26;;;;;;;;;;;;;;;;;;5115096;28;19908;-64
2023/06/26 15:26:51;;;;;;;;;;;;;;;;;;5115153;28;19912;-64
2023/06/26 15:29:18;;;;;;;;;;;;;;;;;;5114466;28;20295;-64
2023/06/26 15:31:44;;;;;;;;;;;;;;;;;;5114967;28;19908;-63
2023/06/26 15:34:09;;;;;;;;;;;;;;;;;;5115242;28;19915;-63
2023/06/26 15:36:35;;;;;;;;;;;;;;;;;;5114668;28;20283;-64
2023/06/26 15:39:01;;;;;;;;;;;;;;;;;;5114630;28;20249;-64
2023/06/26 15:41:27;;;;;;;;;;;;;;;;;;5114838;28;19915;-63
2023/06/26 15:43:53;;;;;;;;;;;;;;;;;;5114453;28;19908;-64
2023/06/26 15:46:19;;;;;;;;;;;;;;;;;;5114871;28;19961;-64
2023/06/26 15:48:45;;;;;;;;;;;;;;;;;;5114464;28;19964;-64
2023/06/26 15:51:11;;;;;;;;;;;;;;;;;;5114390;28;19915;-64
2023/06/26 15:53:37;;;;;;;;;;;;;;;;;;5114510;28;19907;-63
2023/06/26 15:56:03;;;;;;;;;;;;;;;;;;5114520;28;19908;-65
2023/06/26 15:58:29;;;;;;;;;;;;;;;;;;5114116;28;20414;-65
2023/06/26 16:00:55;;;;;;;;;;;;;;;;;;5114449;28;19911;-65
2023/06/26 16:03:21;;;;;;;;;;;;;;;;;;5114178;28;19907;-65
2023/06/26 16:05:47;;;;;;;;;;;;;;;;;;5114462;28;19930;-65
2023/06/26 16:08:13;;;;;;;;;;;;;;;;;;5114380;28;20362;-65
2023/06/26 16:10:39;;;;;;;;;;;;;;;;;;5114053;28;19908;-65
2023/06/26 16:13:05;;;;;;;;;;;;;;;;;;5114084;28;19912;-64
2023/06/26 16:15:31;;;;;;;;;;;;;;;;;;5114120;28;19915;-64
2023/06/26 16:17:57;;;;;;;;;;;;;;;;;;5113962;28;20012;-65
2023/06/26 16:20:23;;;;;;;;;;;;;;;;;;5114304;28;19914;-64
2023/06/26 16:22:49;;;;;;;;;;;;;;;;;;5114324;28;19908;-65
2023/06/26 16:25:15;;;;;;;;;;;;;;;;;;5113918;28;19912;-64
2023/06/26 16:27:41;;;;;;;;;;;;;;;;;;5113964;28;19915;-64
2023/06/26 16:30:07;;;;;;;;;;;;;;;;;;5113954;28;19923;-64
2023/06/26 16:32:33;;;;;;;;;;;;;;;;;;5113654;28;19981;-64
2023/06/26 16:34:59;;;;;;;;;;;;;;;;;;5114057;28;19908;-64
2023/06/26 16:37:25;;;;;;;;;;;;;;;;;;5114118;28;19918;-63
2023/06/26 16:39:51;;;;;;;;;;;;;;;;;;5113632;28;20372;-63
2023/06/26 16:42:20;;;;;;;;;;;;;;;;;;5114022;28;19933;-64
2023/06/26 16:44:46;;;;;;;;;;;;;;;;;;5113918;28;19908;-65
2023/06/26 16:47:16;;;;;;;;;;;;;;;;;;5113818;28;20421;-64
2023/06/26 16:49:42;;;;;;;;;;;;;;;;;;5114329;28;20002;-64
2023/06/26 16:52:08;;;;;;;;;;;;;;;;;;5118258;28;19912;-65
2023/06/26 16:54:34;;;;;;;;;;;;;;;;;;5117727;28;19961;-66
2023/06/26 16:57:00;;;;;;;;;;;;;;;;;;5118053;28;19959;-65
2023/06/26 16:59:26;;;;;;;;;;;;;;;;;;5118055;28;19954;-65
2023/06/26 17:01:53;;;;;;;;;;;;;;;;;;5117670;28;20348;-65
2023/06/26 17:04:19;;;;;;;;;;;;;;;;;;5117971;28;19914;-66
2023/06/26 17:06:45;;;;;;;;;;;;;;;;;;5099235;28;20010;-65
2023/06/26 17:09:11;;;;;;;;;;;;;;;;;;5118032;28;19925;-66
2023/06/26 17:11:37;;;;;;;;;;;;;;;;;;5117782;28;19969;-65
2023/06/26 17:14:03;;;;;;;;;;;;;;;;;;5117367;28;19908;-65
2023/06/26 17:16:29;;;;;;;;;;;;;;;;;;5117843;28;19908;-65
2023/06/26 17:18:55;;;;;;;;;;;;;;;;;;5099352;28;19972;-65
2023/06/26 17:21:21;;;;;;;;;;;;;;;;;;5117175;28;19941;-65
2023/06/26 17:23:47;;;;;;;;;;;;;;;;;;5117485;28;19908;-65
2023/06/26 17:26:13;;;;;;;;;;;;;;;;;;5117546;28;19915;-65
2023/06/26 17:28:39;;;;;;;;;;;;;;;;;;5116841;28;19926;-65
2023/06/26 17:31:05;;;;;;;;;;;;;;;;;;5117477;28;19911;-65
2023/06/26 17:33:31;;;;;;;;;;;;;;;;;;5117407;28;19907;-64
2023/06/26 17:35:56;;;;;;;;;;;;;;;;;;5116850;28;20003;-65
2023/06/26 17:38:22;;;;;;;;;;;;;;;;;;5117345;28;19908;-65
2023/06/26 17:40:48;;;;;;;;;;;;;;;;;;5117409;28;19933;-65
2023/06/26 17:43:15;;;;;;;;;;;;;;;;;;5116929;28;19916;-65
2023/06/26 17:48:04;;;;;;;;;;;;;;;;;;5091386;28;19923;-67
2023/06/26 17:53:54;;;;;;;;;;;;;;;;;;5071055;28;20399;-65
2023/06/26 17:56:20;;;;;;;;;;;;;;;;;;5070715;28;20000;-64
2023/06/26 17:58:47;;;;;;;;;;;;;;;;;;5071164;28;20435;-65
2023/06/26 18:03:37;;;;;;;;;;;;;;;;;;5152754;27;19912;-65
2023/06/26 18:06:41;;;;;;;;;;;;;;;;;;5153035;27;19919;-65
2023/06/26 18:09:07;;;;;;;;;;;;;;;;;;5134167;27;20264;-65
2023/06/26 18:11:32;;;;;;;;;;;;;;;;;;5152449;27;19908;-65
2023/06/26 18:17:22;;;;;;;;;;;;;;;;;;5090997;28;19919;-65
2023/06/26 18:28:18;;;;;;;;;;;;;;;;;;5091372;27;19919;-64
2023/06/26 18:35:08;;;;;;;;;;;;;;;;;;5071531;28;19917;-65
2023/06/26 18:37:51;;;;;;;;;;;;;;;;;;5091821;27;19935;-65
2023/06/26 18:40:17;;;;;;;;;;;;;;;;;;5090989;28;20003;-65
2023/06/26 18:42:43;;;;;;;;;;;;;;;;;;5091309;28;19914;-65
2023/06/26 18:45:09;;;;;;;;;;;;;;;;;;5090905;28;19951;-64
2023/06/26 18:50:05;;;;;;;;;;;;;;;;;;5091726;27;19923;-65
2023/06/26 18:57:54;;;;;;;;;;;;;;;;;;5091462;27;19919;-65
2023/06/26 19:00:20;;;;;;;;;;;;;;;;;;5090890;28;19966;-64
2023/06/26 19:02:46;;;;;;;;;;;;;;;;;;5090969;28;19909;-64
2023/06/26 19:05:14;;;;;;;;;;;;;;;;;;5089849;28;19916;-66
2023/06/26 19:08:09;;;;;;;;;;;;;;;;;;5090959;27;20262;-63
2023/06/26 19:10:56;;;;;;;;;;;;;;;;;;5091612;27;19917;-64
2023/06/26 19:13:22;;;;;;;;;;;;;;;;;;5091065;28;19913;-65
2023/06/26 19:17:59;;;;;;;;;;;;;;;;;;5152989;27;19912;-63
2023/06/26 19:20:25;;;;;;;;;;;;;;;;;;5152446;27;19920;-64
2023/06/26 19:25:42;;;;;;;;;;;;;;;;;;5173862;27;19915;-65
2023/06/26 19:28:11;;;;;;;;;;;;;;;;;;5173490;27;20010;-66
2023/06/26 19:32:58;;;;;;;;;;;;;;;;;;5110215;27;20215;-66
2023/06/26 19:36:02;;;;;;;;;;;;;;;;;;5089354;27;19922;-66
2023/06/26 19:38:48;;;;;;;;;;;;;;;;;;5090579;27;19912;-64
2023/06/26 19:41:14;;;;;;;;;;;;;;;;;;5089505;28;19919;-67
2023/06/26 19:43:39;;;;;;;;;;;;;;;;;;5090689;28;20292;-66
2023/06/26 19:46:05;;;;;;;;;;;;;;;;;;5091321;28;20341;-67
2023/06/26 19:50:57;;;;;;;;;;;;;;;;;;5091403;27;19916;-65
2023/06/26 19:53:23;;;;;;;;;;;;;;;;;;5089324;28;20291;-65
2023/06/26 19:55:49;;;;;;;;;;;;;;;;;;5088839;28;19909;-65
2023/06/26 19:58:15;;;;;;;;;;;;;;;;;;5089198;28;20410;-66
2023/06/26 20:00:41;;;;;;;;;;;;;;;;;;5089145;28;19913;-66
2023/06/26 20:03:07;;;;;;;;;;;;;;;;;;5088764;28;20189;-66
2023/06/26 20:08:36;;;;;;;;;;;;;;;;;;5111776;27;19916;-66
2023/06/26 20:13:10;;;;;;;;;;;;;;;;;;5153533;27;20006;-66
2023/06/26 20:18:50;;;;;;;;;;;;;;;;;;5071277;28;19913;-65
2023/06/26 20:21:16;;;;;;;;;;;;;;;;;;5071169;28;20003;-65
2023/06/26 20:26:14;;;;;;;;;;;;;;;;;;5112185;27;19922;-65